Time;durP1;ratioP1;P1;durP2;ratioP2;P2;SDS_P1;SDS_P2;PMS_P1;PMS_P2;Temp;Humidity;BMP_temperature;BMP_pressure;BME280_temperature;BME280_humidity;BME280_pressure;Samples;Min_cycle;Max_cycle;Signal;HPM_P1;HPM_P2
2023/07/25 00:01:08;;;;;;;3.23;2.70;;;;;;;;;;5062279;27;87397;-59
2023/07/25 00:03:38;;;;;;;5.10;3.00;;;;;;;;;;5073286;27;88096;-58
2023/07/25 00:06:07;;;;;;;4.77;3.07;;;;;;;;;;5083334;27;87469;-58
2023/07/25 00:08:35;;;;;;;6.87;2.93;;;;;;;;;;5083499;27;87754;-58
2023/07/25 00:11:04;;;;;;;6.27;2.60;;;;;;;;;;5083027;27;89674;-58
2023/07/25 00:13:32;;;;;;;4.20;3.10;;;;;;;;;;5082577;27;89529;-58
2023/07/25 00:16:00;;;;;;;4.93;3.03;;;;;;;;;;5079247;27;87961;-58
2023/07/25 00:18:29;;;;;;;7.13;3.00;;;;;;;;;;5062129;27;87342;-59
2023/07/25 00:20:59;;;;;;;5.87;2.83;;;;;;;;;;5061974;27;87600;-59
2023/07/25 00:23:27;;;;;;;6.93;2.90;;;;;;;;;;5062425;27;88086;-59
2023/07/25 00:25:55;;;;;;;6.43;3.53;;;;;;;;;;5062953;27;87328;-58
2023/07/25 00:28:24;;;;;;;5.97;3.47;;;;;;;;;;5062610;27;87583;-59
2023/07/25 00:30:52;;;;;;;5.50;3.40;;;;;;;;;;5062655;27;89791;-58
2023/07/25 00:33:21;;;;;;;5.33;2.90;;;;;;;;;;5062299;27;87990;-58
2023/07/25 00:35:53;;;;;;;4.40;2.83;;;;;;;;;;5061871;27;87272;-59
2023/07/25 00:38:22;;;;;;;3.77;2.97;;;;;;;;;;5062419;27;87235;-58
2023/07/25 00:40:51;;;;;;;4.13;2.20;;;;;;;;;;5062176;27;88979;-58
2023/07/25 00:43:19;;;;;;;5.63;3.57;;;;;;;;;;5065813;27;87870;-58
2023/07/25 00:45:48;;;;;;;5.77;2.80;;;;;;;;;;5083195;27;87308;-58
2023/07/25 00:48:16;;;;;;;4.80;2.93;;;;;;;;;;5082543;27;87573;-59
2023/07/25 00:50:45;;;;;;;3.87;2.37;;;;;;;;;;5072506;27;89616;-58
2023/07/25 00:53:13;;;;;;;4.07;2.93;;;;;;;;;;5062281;27;88926;-58
2023/07/25 00:55:44;;;;;;;5.07;2.80;;;;;;;;;;5062203;27;87505;-58
2023/07/25 00:58:12;;;;;;;7.00;2.93;;;;;;;;;;5070163;27;87620;-58
2023/07/25 01:00:40;;;;;;;3.67;2.20;;;;;;;;;;5063541;27;89479;-59
2023/07/25 01:03:09;;;;;;;7.37;2.30;;;;;;;;;;5068157;27;89035;-58
2023/07/25 01:05:39;;;;;;;4.27;2.57;;;;;;;;;;5073546;27;87518;-59
2023/07/25 01:08:07;;;;;;;2.70;1.93;;;;;;;;;;5071483;27;87436;-58
2023/07/25 01:10:38;;;;;;;4.20;2.43;;;;;;;;;;5067601;27;88532;-58
2023/07/25 01:13:08;;;;;;;3.67;2.23;;;;;;;;;;5064864;27;87988;-59
2023/07/25 01:15:37;;;;;;;4.50;2.30;;;;;;;;;;5062013;27;87322;-58
2023/07/25 01:18:05;;;;;;;2.57;1.90;;;;;;;;;;5069636;27;87587;-59
2023/07/25 01:20:35;;;;;;;3.43;2.10;;;;;;;;;;5082277;27;88526;-58
2023/07/25 01:23:03;;;;;;;3.10;2.07;;;;;;;;;;5082208;27;88199;-59
2023/07/25 01:25:33;;;;;;;3.93;1.90;;;;;;;;;;5065710;27;87326;-59
2023/07/25 01:28:01;;;;;;;3.07;2.53;;;;;;;;;;5062219;27;87659;-58
2023/07/25 01:30:30;;;;;;;3.27;1.97;;;;;;;;;;5061911;27;90024;-58
2023/07/25 01:32:59;;;;;;;3.27;1.93;;;;;;;;;;5062931;27;87988;-58
2023/07/25 01:35:27;;;;;;;2.80;2.00;;;;;;;;;;5065081;27;87347;-59
2023/07/25 01:37:56;;;;;;;2.00;1.47;;;;;;;;;;5066411;27;87608;-58
2023/07/25 01:40:24;;;;;;;2.67;1.80;;;;;;;;;;5064483;27;89692;-59
2023/07/25 01:42:54;;;;;;;1.50;1.33;;;;;;;;;;5070028;27;89159;-58
2023/07/25 01:45:22;;;;;;;3.47;1.73;;;;;;;;;;5084790;27;87291;-58
2023/07/25 01:47:51;;;;;;;2.57;1.37;;;;;;;;;;5084670;27;87687;-58
2023/07/25 01:50:19;;;;;;;2.93;1.60;;;;;;;;;;5070776;27;89679;-58
2023/07/25 01:52:48;;;;;;;1.83;1.73;;;;;;;;;;5068935;27;87947;-58
2023/07/25 01:55:16;;;;;;;2.83;1.70;;;;;;;;;;5075891;27;87330;-59
2023/07/25 01:57:44;;;;;;;3.77;1.50;;;;;;;;;;5064855;27;87667;-58
2023/07/25 02:00:14;;;;;;;1.60;1.23;;;;;;;;;;5063567;27;89593;-59
2023/07/25 02:02:43;;;;;;;2.83;1.60;;;;;;;;;;5066334;27;89109;-58
2023/07/25 02:05:11;;;;;;;3.67;1.33;;;;;;;;;;5077303;27;87517;-58
2023/07/25 02:07:40;;;;;;;2.57;1.80;;;;;;;;;;5066141;27;87759;-55
2023/07/25 02:10:09;;;;;;;3.67;1.07;;;;;;;;;;5064444;27;87479;-58
2023/07/25 02:12:37;;;;;;;4.97;1.37;;;;;;;;;;5064380;27;88277;-58
2023/07/25 02:15:06;;;;;;;2.97;1.60;;;;;;;;;;5063953;27;87393;-58
2023/07/25 02:17:36;;;;;;;1.83;1.63;;;;;;;;;;5064390;27;87619;-58
2023/07/25 02:20:05;;;;;;;2.97;2.03;;;;;;;;;;5064043;27;87466;-58
2023/07/25 02:22:33;;;;;;;4.20;2.33;;;;;;;;;;5085234;27;87763;-58
2023/07/25 02:25:01;;;;;;;4.43;2.90;;;;;;;;;;5085262;27;87407;-59
2023/07/25 02:27:30;;;;;;;4.60;3.10;;;;;;;;;;5085169;27;87687;-58
2023/07/25 02:29:58;;;;;;;4.57;3.23;;;;;;;;;;5084792;27;88640;-58
2023/07/25 02:32:27;;;;;;;8.20;4.27;;;;;;;;;;5063995;27;89039;-58
2023/07/25 02:34:56;;;;;;;9.83;4.40;;;;;;;;;;5064272;27;87460;-58
2023/07/25 02:37:25;;;;;;;7.43;4.43;;;;;;;;;;5064627;27;87040;-58
2023/07/25 02:39:53;;;;;;;6.47;4.93;;;;;;;;;;5064104;27;88526;-58
2023/07/25 02:42:22;;;;;;;7.83;4.20;;;;;;;;;;5082460;27;87489;-58
2023/07/25 02:44:50;;;;;;;8.87;4.73;;;;;;;;;;5084518;27;87316;-58
2023/07/25 02:47:18;;;;;;;9.07;4.77;;;;;;;;;;5085193;27;87640;-58
2023/07/25 02:49:47;;;;;;;7.20;5.17;;;;;;;;;;5084644;27;89483;-58
2023/07/25 02:52:16;;;;;;;8.03;5.60;;;;;;;;;;5083028;27;88284;-58
2023/07/25 02:54:45;;;;;;;9.47;5.87;;;;;;;;;;5073839;27;87434;-58
2023/07/25 02:57:13;;;;;;;10.07;6.03;;;;;;;;;;5077584;27;87670;-58
2023/07/25 02:59:42;;;;;;;10.87;6.23;;;;;;;;;;5074785;27;89607;-58
2023/07/25 03:02:10;;;;;;;10.70;6.47;;;;;;;;;;5060817;27;89122;-58
2023/07/25 03:04:39;;;;;;;9.27;6.23;;;;;;;;;;5067951;27;87476;-58
2023/07/25 03:07:07;;;;;;;10.67;6.23;;;;;;;;;;5067374;27;87619;-58
2023/07/25 03:09:40;;;;;;;11.10;6.47;;;;;;;;;;5061073;27;88333;-58
2023/07/25 03:12:08;;;;;;;11.90;6.77;;;;;;;;;;5060956;27;88557;-58
2023/07/25 03:14:37;;;;;;;9.93;6.27;;;;;;;;;;5061470;27;88037;-58
2023/07/25 03:17:06;;;;;;;10.73;6.80;;;;;;;;;;5060908;27;87393;-58
2023/07/25 03:19:34;;;;;;;12.43;7.63;;;;;;;;;;5060773;27;89652;-58
2023/07/25 03:22:03;;;;;;;12.10;7.70;;;;;;;;;;5060609;27;87507;-59
2023/07/25 03:24:31;;;;;;;12.40;7.10;;;;;;;;;;5060979;27;87521;-58
2023/07/25 03:27:01;;;;;;;12.40;6.47;;;;;;;;;;5060456;27;87944;-58
2023/07/25 03:29:29;;;;;;;14.27;7.60;;;;;;;;;;5060312;27;88595;-58
2023/07/25 03:31:57;;;;;;;11.77;7.17;;;;;;;;;;5060195;27;89058;-58
2023/07/25 03:34:26;;;;;;;11.43;7.50;;;;;;;;;;5060083;27;88216;-58
2023/07/25 03:36:54;;;;;;;11.37;7.47;;;;;;;;;;5060092;27;87739;-59
2023/07/25 03:39:23;;;;;;;12.30;7.10;;;;;;;;;;5060337;27;87442;-58
2023/07/25 03:41:51;;;;;;;10.97;6.10;;;;;;;;;;5060063;27;89082;-58
2023/07/25 03:44:21;;;;;;;11.33;6.87;;;;;;;;;;5060296;27;87410;-58
2023/07/25 03:46:49;;;;;;;9.83;6.03;;;;;;;;;;5076916;27;87651;-58
2023/07/25 03:49:17;;;;;;;11.03;6.13;;;;;;;;;;5080876;27;88518;-58
2023/07/25 03:51:46;;;;;;;8.77;6.40;;;;;;;;;;5080392;27;87959;-58
2023/07/25 03:54:14;;;;;;;9.47;6.00;;;;;;;;;;5080664;27;87495;-58
2023/07/25 03:56:43;;;;;;;9.13;5.77;;;;;;;;;;5078675;27;87520;-58
2023/07/25 03:59:11;;;;;;;8.90;6.00;;;;;;;;;;5080620;27;88862;-58
2023/07/25 04:01:41;;;;;;;8.57;5.20;;;;;;;;;;5066143;27;88097;-58
2023/07/25 04:04:09;;;;;;;8.37;5.13;;;;;;;;;;5069614;27;88207;-58
2023/07/25 04:06:38;;;;;;;12.70;5.67;;;;;;;;;;5080612;27;87672;-58
2023/07/25 04:09:06;;;;;;;9.80;4.90;;;;;;;;;;5065009;27;88500;-58
2023/07/25 04:11:35;;;;;;;7.43;4.60;;;;;;;;;;5062840;27;87657;-58
2023/07/25 04:14:03;;;;;;;6.90;4.83;;;;;;;;;;5062953;27;87554;-58
2023/07/25 04:16:32;;;;;;;8.80;5.47;;;;;;;;;;5062963;27;87634;-58
2023/07/25 04:19:01;;;;;;;7.40;5.20;;;;;;;;;;5062576;27;88543;-58
2023/07/25 04:21:30;;;;;;;9.23;4.50;;;;;;;;;;5062392;27;87831;-58
2023/07/25 04:23:59;;;;;;;6.63;4.03;;;;;;;;;;5063055;27;87367;-58
2023/07/25 04:26:27;;;;;;;4.20;3.60;;;;;;;;;;5062773;27;87654;-58
2023/07/25 04:28:55;;;;;;;6.50;3.80;;;;;;;;;;5062572;27;88525;-58
2023/07/25 04:31:24;;;;;;;6.03;4.03;;;;;;;;;;5062576;27;88039;-58
2023/07/25 04:33:52;;;;;;;6.00;3.80;;;;;;;;;;5062931;27;87612;-58
2023/07/25 04:36:22;;;;;;;6.27;4.00;;;;;;;;;;5062872;27;87508;-59
2023/07/25 04:38:50;;;;;;;5.43;4.10;;;;;;;;;;5062478;27;88632;-58
2023/07/25 04:41:19;;;;;;;3.30;2.97;;;;;;;;;;5062810;27;87272;-59
2023/07/25 04:43:47;;;;;;;3.73;2.70;;;;;;;;;;5062287;27;87713;-59
2023/07/25 04:46:15;;;;;;;5.90;4.13;;;;;;;;;;5063222;27;87619;-58
2023/07/25 04:48:44;;;;;;;4.50;3.27;;;;;;;;;;5062267;27;87319;-58
2023/07/25 04:51:12;;;;;;;4.57;2.90;;;;;;;;;;5062390;27;88152;-58
2023/07/25 04:53:42;;;;;;;5.00;3.10;;;;;;;;;;5062694;27;87413;-58
2023/07/25 04:56:10;;;;;;;5.50;3.37;;;;;;;;;;5062091;27;88169;-58
2023/07/25 04:58:40;;;;;;;5.73;3.63;;;;;;;;;;5062218;27;88479;-58
2023/07/25 05:01:12;;;;;;;3.60;2.53;;;;;;;;;;5062475;27;88053;-58
2023/07/25 05:03:40;;;;;;;4.37;3.00;;;;;;;;;;5062102;27;87364;-58
2023/07/25 05:06:11;;;;;;;3.27;2.40;;;;;;;;;;5074481;27;87650;-58
2023/07/25 05:08:39;;;;;;;6.20;2.80;;;;;;;;;;5086627;27;90873;-58
2023/07/25 05:11:09;;;;;;;3.33;2.20;;;;;;;;;;5086145;27;87896;-58
2023/07/25 05:13:37;;;;;;;4.90;2.80;;;;;;;;;;5086639;27;87549;-58
2023/07/25 05:16:06;;;;;;;5.13;2.63;;;;;;;;;;5086613;27;87628;-58
2023/07/25 05:18:34;;;;;;;3.20;2.47;;;;;;;;;;5084894;27;91907;-58
2023/07/25 05:21:03;;;;;;;3.20;2.20;;;;;;;;;;5085622;27;87949;-58
2023/07/25 05:23:31;;;;;;;2.37;1.93;;;;;;;;;;5086508;27;87523;-58
2023/07/25 05:25:59;;;;;;;2.80;2.07;;;;;;;;;;5086258;27;87663;-58
2023/07/25 05:28:29;;;;;;;3.00;2.47;;;;;;;;;;5085819;27;88553;-58
2023/07/25 05:30:57;;;;;;;2.17;1.57;;;;;;;;;;5074696;27;88026;-58
2023/07/25 05:33:26;;;;;;;4.67;1.83;;;;;;;;;;5084614;27;87402;-58
2023/07/25 05:36:00;;;;;;;2.03;1.63;;;;;;;;;;5074872;27;87659;-58
2023/07/25 05:38:28;;;;;;;2.63;1.37;;;;;;;;;;5065661;27;89515;-58
2023/07/25 05:40:57;;;;;;;3.87;2.10;;;;;;;;;;5065429;27;88002;-58
2023/07/25 05:43:25;;;;;;;1.87;1.77;;;;;;;;;;5064678;27;87468;-58
2023/07/25 05:45:55;;;;;;;1.73;1.40;;;;;;;;;;5067792;27;87540;-58
2023/07/25 05:48:23;;;;;;;3.67;1.40;;;;;;;;;;5064946;27;88879;-58
2023/07/25 05:50:52;;;;;;;2.97;1.87;;;;;;;;;;5065663;27;87406;-58
2023/07/25 05:53:20;;;;;;;4.43;1.60;;;;;;;;;;5065543;27;87415;-58
2023/07/25 05:55:49;;;;;;;2.83;1.53;;;;;;;;;;5065552;27;87527;-58
2023/07/25 05:58:17;;;;;;;2.53;1.47;;;;;;;;;;5064363;27;88655;-58
2023/07/25 06:00:46;;;;;;;1.90;1.30;;;;;;;;;;5064835;27;89138;-58
2023/07/25 06:03:16;;;;;;;1.93;1.60;;;;;;;;;;5083148;27;87676;-58
2023/07/25 06:05:45;;;;;;;2.20;1.30;;;;;;;;;;5064158;27;87613;-58
2023/07/25 06:08:13;;;;;;;1.60;1.30;;;;;;;;;;5063701;27;88544;-58
2023/07/25 06:10:43;;;;;;;2.53;1.30;;;;;;;;;;5062449;27;90427;-58
2023/07/25 06:13:11;;;;;;;1.70;1.27;;;;;;;;;;5063356;27;87426;-58
2023/07/25 06:15:40;;;;;;;1.60;1.30;;;;;;;;;;5065674;27;88255;-58
2023/07/25 06:18:09;;;;;;;3.13;1.03;;;;;;;;;;5081272;27;88652;-58
2023/07/25 06:20:38;;;;;;;1.20;1.07;;;;;;;;;;5063897;27;88332;-58
2023/07/25 06:23:07;;;;;;;2.20;1.10;;;;;;;;;;5067229;27;91687;-58
2023/07/25 06:25:35;;;;;;;3.53;1.67;;;;;;;;;;5082519;27;87407;-58
2023/07/25 06:28:04;;;;;;;3.17;1.13;;;;;;;;;;5077480;27;88511;-58
2023/07/25 06:30:33;;;;;;;1.97;1.20;;;;;;;;;;5081207;27;90587;-58
2023/07/25 06:33:02;;;;;;;2.97;1.47;;;;;;;;;;5071718;27;87554;-58
2023/07/25 06:35:31;;;;;;;1.57;1.17;;;;;;;;;;5066397;27;89852;-57
2023/07/25 06:38:01;;;;;;;1.57;0.77;;;;;;;;;;5067140;27;89454;-58
2023/07/25 06:40:29;;;;;;;1.43;0.90;;;;;;;;;;5076038;27;88255;-58
2023/07/25 06:42:58;;;;;;;1.67;1.10;;;;;;;;;;5072363;27;88902;-56
2023/07/25 06:45:26;;;;;;;1.67;1.00;;;;;;;;;;5082810;27;87432;-57
2023/07/25 06:47:55;;;;;;;2.40;0.90;;;;;;;;;;5083411;27;88547;-57
2023/07/25 06:50:24;;;;;;;2.20;0.80;;;;;;;;;;5083896;27;87833;-57
2023/07/25 06:52:52;;;;;;;1.67;1.10;;;;;;;;;;5083788;27;87540;-57
2023/07/25 06:55:22;;;;;;;2.37;1.10;;;;;;;;;;5083760;27;87618;-58
2023/07/25 06:57:51;;;;;;;2.70;1.10;;;;;;;;;;5083195;27;88406;-56
2023/07/25 07:00:19;;;;;;;1.10;0.70;;;;;;;;;;5082496;27;88144;-56
2023/07/25 07:02:48;;;;;;;1.30;1.10;;;;;;;;;;5083212;27;88667;-56
2023/07/25 07:05:17;;;;;;;0.90;0.60;;;;;;;;;;5083531;27;87652;-56
2023/07/25 07:07:57;;;;;;;2.97;0.57;;;;;;;;;;5080744;27;89765;-56
2023/07/25 07:10:27;;;;;;;1.43;0.80;;;;;;;;;;5077454;27;88003;-56
2023/07/25 07:12:55;;;;;;;1.77;0.50;;;;;;;;;;5077972;27;90563;-54
2023/07/25 07:15:24;;;;;;;2.00;0.50;;;;;;;;;;5077959;27;87466;-56
2023/07/25 07:17:53;;;;;;;0.50;0.50;;;;;;;;;;5079381;27;88129;-56
2023/07/25 07:20:22;;;;;;;1.63;0.50;;;;;;;;;;5070721;27;87917;-56
2023/07/25 07:22:50;;;;;;;0.67;0.40;;;;;;;;;;5094068;27;87738;-56
2023/07/25 07:25:18;;;;;;;0.70;0.60;;;;;;;;;;5082001;27;87781;-56
2023/07/25 07:27:48;;;;;;;1.50;0.50;;;;;;;;;;5062011;27;89909;-56
2023/07/25 07:30:16;;;;;;;1.47;0.40;;;;;;;;;;5062186;27;88035;-56
2023/07/25 07:32:45;;;;;;;0.40;0.33;;;;;;;;;;5062265;27;87572;-56
2023/07/25 07:35:13;;;;;;;0.30;0.23;;;;;;;;;;5071942;27;87624;-56
2023/07/25 07:37:42;;;;;;;1.70;0.40;;;;;;;;;;5082474;27;89988;-56
2023/07/25 07:40:10;;;;;;;0.30;0.30;;;;;;;;;;5083040;27;88057;-56
2023/07/25 07:42:39;;;;;;;0.30;0.30;;;;;;;;;;5082167;27;88735;-56
2023/07/25 07:45:10;;;;;;;0.87;0.40;;;;;;;;;;5082838;27;87488;-56
2023/07/25 07:47:38;;;;;;;1.83;0.40;;;;;;;;;;5082973;27;88586;-56
2023/07/25 07:50:07;;;;;;;0.20;0.20;;;;;;;;;;5081807;27;89011;-56
2023/07/25 07:52:40;;;;;;;1.40;0.40;;;;;;;;;;5082190;27;89864;-56
2023/07/25 07:55:10;;;;;;;2.50;0.40;;;;;;;;;;5082921;27;87609;-56
2023/07/25 07:57:40;;;;;;;0.10;0.10;;;;;;;;;;5082025;27;88152;-56
2023/07/25 08:00:11;;;;;;;1.70;0.20;;;;;;;;;;5082609;27;89151;-56
2023/07/25 08:02:39;;;;;;;2.30;0.50;;;;;;;;;;5076437;27;88540;-56
2023/07/25 08:05:08;;;;;;;0.30;0.30;;;;;;;;;;5073076;27;87671;-56
2023/07/25 08:07:37;;;;;;;0.60;0.60;;;;;;;;;;5082282;27;88533;-56
2023/07/25 08:10:06;;;;;;;0.40;0.40;;;;;;;;;;5079304;27;88070;-56
2023/07/25 08:12:34;;;;;;;0.20;0.20;;;;;;;;;;5081251;27;88952;-56
2023/07/25 08:15:03;;;;;;;0.40;0.40;;;;;;;;;;5081189;27;87881;-55
2023/07/25 08:17:32;;;;;;;0.30;0.30;;;;;;;;;;5075225;27;88491;-57
2023/07/25 08:20:01;;;;;;;0.20;0.20;;;;;;;;;;5071009;27;88072;-56
2023/07/25 08:22:29;;;;;;;0.77;0.40;;;;;;;;;;5079784;27;87770;-54
2023/07/25 08:24:58;;;;;;;1.37;0.40;;;;;;;;;;5067662;27;87731;-58
2023/07/25 08:27:27;;;;;;;2.80;0.63;;;;;;;;;;5080940;27;88195;-56
2023/07/25 08:29:55;;;;;;;0.60;0.43;;;;;;;;;;5077447;27;88994;-55
2023/07/25 08:32:25;;;;;;;0.20;0.20;;;;;;;;;;5061656;27;87888;-55
2023/07/25 08:34:55;;;;;;;0.40;0.30;;;;;;;;;;5061112;27;87476;-56
2023/07/25 08:37:25;;;;;;;1.17;0.40;;;;;;;;;;5061164;27;87388;-57
2023/07/25 08:39:53;;;;;;;0.53;0.20;;;;;;;;;;5060644;27;89983;-55
2023/07/25 08:42:21;;;;;;;0.50;0.30;;;;;;;;;;5059742;27;88487;-57
2023/07/25 08:44:50;;;;;;;1.07;0.13;;;;;;;;;;5061013;27;87358;-54
2023/07/25 08:47:18;;;;;;;0.87;0.30;;;;;;;;;;5061111;27;88194;-55
2023/07/25 08:49:48;;;;;;;2.73;0.80;;;;;;;;;;5061170;27;88025;-55
2023/07/25 08:52:18;;;;;;;0.10;0.10;;;;;;;;;;5060873;27;87903;-55
2023/07/25 08:54:46;;;;;;;1.27;0.20;;;;;;;;;;5060887;27;87768;-56
2023/07/25 08:57:15;;;;;;;3.10;0.50;;;;;;;;;;5060769;27;89652;-55
2023/07/25 08:59:43;;;;;;;0.40;0.20;;;;;;;;;;5060971;27;88041;-56
2023/07/25 09:02:11;;;;;;;0.63;0.20;;;;;;;;;;5061009;27;88834;-57
2023/07/25 09:04:40;;;;;;;0.67;0.30;;;;;;;;;;5060779;27;87652;-56
2023/07/25 09:07:09;;;;;;;0.20;0.20;;;;;;;;;;5060730;27;88715;-55
2023/07/25 09:09:39;;;;;;;0.60;0.40;;;;;;;;;;5060365;27;88993;-54
2023/07/25 09:12:08;;;;;;;0.30;0.30;;;;;;;;;;5060720;27;88049;-56
2023/07/25 09:14:38;;;;;;;0.30;0.30;;;;;;;;;;5060904;27;87540;-56
2023/07/25 09:17:06;;;;;;;3.03;0.50;;;;;;;;;;5060594;27;89820;-54
2023/07/25 09:19:35;;;;;;;0.93;0.37;;;;;;;;;;5060593;27;87844;-56
2023/07/25 09:22:03;;;;;;;0.10;0.10;;;;;;;;;;5060934;27;88890;-56
2023/07/25 09:24:36;;;;;;;0.40;0.30;;;;;;;;;;5060704;27;87593;-55
2023/07/25 09:27:08;;;;;;;0.60;0.20;;;;;;;;;;5060516;27;88274;-56
2023/07/25 09:29:38;;;;;;;2.67;0.50;;;;;;;;;;5060178;27;89289;-56
2023/07/25 09:32:08;;;;;;;2.33;0.40;;;;;;;;;;5060654;27;89898;-55
2023/07/25 09:34:37;;;;;;;0.83;0.20;;;;;;;;;;5060353;27;87693;-56
2023/07/25 09:37:06;;;;;;;1.40;0.50;;;;;;;;;;5060482;27;88483;-56
2023/07/25 09:39:35;;;;;;;0.43;0.27;;;;;;;;;;5060249;27;89030;-56
2023/07/25 09:42:03;;;;;;;0.77;0.30;;;;;;;;;;5060144;27;87311;-56
2023/07/25 09:44:34;;;;;;;0.17;0.17;;;;;;;;;;5060610;27;87643;-56
2023/07/25 09:47:02;;;;;;;2.40;0.20;;;;;;;;;;5060318;27;88567;-55
2023/07/25 09:49:31;;;;;;;3.87;0.53;;;;;;;;;;5060745;27;89057;-56
2023/07/25 09:52:00;;;;;;;0.83;0.20;;;;;;;;;;5060284;27;88617;-56
2023/07/25 09:54:29;;;;;;;1.07;0.30;;;;;;;;;;5061538;27;87834;-56
2023/07/25 09:56:57;;;;;;;0.30;0.20;;;;;;;;;;5063321;27;89594;-55
2023/07/25 09:59:25;;;;;;;0.43;0.23;;;;;;;;;;5063590;27;88780;-56
2023/07/25 10:01:55;;;;;;;1.40;0.50;;;;;;;;;;5063621;27;88851;-56
2023/07/25 10:04:24;;;;;;;0.33;0.30;;;;;;;;;;5063733;27;87648;-56
2023/07/25 10:06:52;;;;;;;2.40;0.30;;;;;;;;;;5063877;27;89694;-56
2023/07/25 10:09:21;;;;;;;0.30;0.30;;;;;;;;;;5063218;27;88986;-56
2023/07/25 10:11:50;;;;;;;0.17;0.17;;;;;;;;;;5063631;27;89099;-56
2023/07/25 10:14:18;;;;;;;0.70;0.20;;;;;;;;;;5063346;27;87423;-56
2023/07/25 10:16:47;;;;;;;0.93;0.20;;;;;;;;;;5063574;27;88330;-56
2023/07/25 10:19:17;;;;;;;0.93;0.50;;;;;;;;;;5062934;27;89442;-55
2023/07/25 10:21:48;;;;;;;2.27;0.37;;;;;;;;;;5063107;27;89728;-57
2023/07/25 10:24:17;;;;;;;0.30;0.27;;;;;;;;;;5063538;27;87553;-56
2023/07/25 10:26:55;;;;;;;0.37;0.20;;;;;;;;;;5063235;27;89712;-56
2023/07/25 10:29:36;;;;;;;0.40;0.40;;;;;;;;;;5063409;27;88127;-55
2023/07/25 10:32:05;;;;;;;0.63;0.13;;;;;;;;;;5063176;27;88639;-56
2023/07/25 10:34:50;;;;;;;0.17;0.17;;;;;;;;;;5062687;27;87551;-55
2023/07/25 10:37:22;;;;;;;0.53;0.30;;;;;;;;;;5062745;27;88251;-55
2023/07/25 10:40:03;;;;;;;0.10;0.10;;;;;;;;;;5063086;27;87995;-57
2023/07/25 10:42:45;;;;;;;0.23;0.20;;;;;;;;;;5062476;27;88090;-56
2023/07/25 10:45:52;;;;;;;0.20;0.20;;;;;;;;;;5062274;27;87909;-55
2023/07/25 10:48:33;;;;;;;0.20;0.20;;;;;;;;;;5062771;27;88455;-56
2023/07/25 10:51:04;;;;;;;0.20;0.20;;;;;;;;;;5062548;27;89214;-56
2023/07/25 10:53:33;;;;;;;0.20;0.20;;;;;;;;;;5062937;27;87769;-56
2023/07/25 10:56:13;;;;;;;0.30;0.30;;;;;;;;;;5062978;27;87626;-56
2023/07/25 10:59:00;;;;;;;1.20;0.30;;;;;;;;;;5062632;27;89688;-55
2023/07/25 11:01:32;;;;;;;0.20;0.20;;;;;;;;;;5062713;27;87996;-56
2023/07/25 11:04:16;;;;;;;1.13;0.20;;;;;;;;;;5062908;27;87189;-55
2023/07/25 11:06:46;;;;;;;1.33;0.50;;;;;;;;;;5062401;27;87337;-56
2023/07/25 11:09:14;;;;;;;0.40;0.40;;;;;;;;;;5062412;27;89927;-56
2023/07/25 11:11:43;;;;;;;0.53;0.30;;;;;;;;;;5062233;27;88981;-54
2023/07/25 11:14:13;;;;;;;0.30;0.27;;;;;;;;;;5062655;27;89580;-56
2023/07/25 11:16:41;;;;;;;0.20;0.20;;;;;;;;;;5062686;27;87631;-56
2023/07/25 11:19:10;;;;;;;0.17;0.17;;;;;;;;;;5062411;27;88368;-55
2023/07/25 11:21:39;;;;;;;1.13;0.10;;;;;;;;;;5062116;27;87496;-56
2023/07/25 11:24:09;;;;;;;0.53;0.20;;;;;;;;;;5062263;27;87820;-55
2023/07/25 11:26:37;;;;;;;0.20;0.20;;;;;;;;;;5062418;27;87645;-57
2023/07/25 11:29:06;;;;;;;0.30;0.30;;;;;;;;;;5062297;27;89727;-56
2023/07/25 11:31:35;;;;;;;0.70;0.30;;;;;;;;;;5061961;27;87330;-56
2023/07/25 11:34:10;;;;;;;0.40;0.40;;;;;;;;;;5061732;27;87368;-56
2023/07/25 11:36:39;;;;;;;0.20;0.20;;;;;;;;;;5061840;27;87676;-55
2023/07/25 11:39:09;;;;;;;0.43;0.20;;;;;;;;;;5062435;27;88522;-56
2023/07/25 11:41:38;;;;;;;0.63;0.20;;;;;;;;;;5061999;27;89140;-56
2023/07/25 11:44:07;;;;;;;0.77;0.43;;;;;;;;;;5061489;27;87604;-56
2023/07/25 11:46:35;;;;;;;0.30;0.30;;;;;;;;;;5062392;27;87352;-55
2023/07/25 11:49:03;;;;;;;0.70;0.30;;;;;;;;;;5061393;27;88770;-56
2023/07/25 11:51:32;;;;;;;0.10;0.10;;;;;;;;;;5061734;27;87920;-55
2023/07/25 11:54:01;;;;;;;0.10;0.10;;;;;;;;;;5062040;27;88980;-56
2023/07/25 11:56:30;;;;;;;0.53;0.30;;;;;;;;;;5061695;27;87643;-56
2023/07/25 11:59:00;;;;;;;0.10;0.10;;;;;;;;;;5061581;27;88581;-55
2023/07/25 12:01:29;;;;;;;0.10;0.10;;;;;;;;;;5061164;27;88762;-55
2023/07/25 12:04:00;;;;;;;0.30;0.30;;;;;;;;;;5061361;27;88418;-57
2023/07/25 12:06:29;;;;;;;0.20;0.20;;;;;;;;;;5061944;27;87176;-59
2023/07/25 12:08:59;;;;;;;0.30;0.30;;;;;;;;;;5061740;27;88530;-60
2023/07/25 12:11:28;;;;;;;0.77;0.43;;;;;;;;;;5061749;27;89254;-58
2023/07/25 12:13:59;;;;;;;0.53;0.20;;;;;;;;;;5062869;27;88973;-59
2023/07/25 12:16:27;;;;;;;0.33;0.20;;;;;;;;;;5071958;27;87641;-61
2023/07/25 12:18:56;;;;;;;1.10;0.30;;;;;;;;;;5081346;27;88468;-61
2023/07/25 12:21:26;;;;;;;0.20;0.20;;;;;;;;;;5080708;27;89223;-61
2023/07/25 12:23:55;;;;;;;0.10;0.10;;;;;;;;;;5081697;27;89214;-61
2023/07/25 12:26:23;;;;;;;1.77;0.40;;;;;;;;;;5081551;27;87802;-60
2023/07/25 12:28:52;;;;;;;0.17;0.17;;;;;;;;;;5082087;27;89643;-59
2023/07/25 12:31:22;;;;;;;0.30;0.30;;;;;;;;;;5081817;27;89329;-60
2023/07/25 12:33:51;;;;;;;0.63;0.50;;;;;;;;;;5081757;27;88764;-62
2023/07/25 12:36:21;;;;;;;0.43;0.20;;;;;;;;;;5082415;27;87582;-62
2023/07/25 12:38:50;;;;;;;0.30;0.30;;;;;;;;;;5081419;27;89586;-56
2023/07/25 12:41:18;;;;;;;0.20;0.20;;;;;;;;;;5081730;27;89137;-61
2023/07/25 12:43:47;;;;;;;0.23;0.23;;;;;;;;;;5081337;27;88230;-60
2023/07/25 12:46:15;;;;;;;0.33;0.33;;;;;;;;;;5081726;27;87791;-60
2023/07/25 12:48:45;;;;;;;2.17;0.40;;;;;;;;;;5080789;27;89740;-59
2023/07/25 12:51:14;;;;;;;2.13;0.40;;;;;;;;;;5080351;27;90020;-60
2023/07/25 12:53:42;;;;;;;0.20;0.20;;;;;;;;;;5081645;27;89756;-60
2023/07/25 12:56:11;;;;;;;0.50;0.50;;;;;;;;;;5080556;27;87835;-59
2023/07/25 12:58:39;;;;;;;0.20;0.20;;;;;;;;;;5081403;27;89528;-59
2023/07/25 13:01:08;;;;;;;0.20;0.20;;;;;;;;;;5080418;27;88857;-60
2023/07/25 13:03:40;;;;;;;0.90;0.30;;;;;;;;;;5081171;27;88525;-60
2023/07/25 13:06:10;;;;;;;0.27;0.27;;;;;;;;;;5081739;27;87493;-60
2023/07/25 13:08:39;;;;;;;0.40;0.40;;;;;;;;;;5081492;27;88563;-60
2023/07/25 13:11:07;;;;;;;0.30;0.20;;;;;;;;;;5081251;27;89160;-60
2023/07/25 13:13:36;;;;;;;0.10;0.10;;;;;;;;;;5081134;27;88936;-60
2023/07/25 13:16:06;;;;;;;0.23;0.20;;;;;;;;;;5080797;27;87649;-59
2023/07/25 13:18:35;;;;;;;0.30;0.30;;;;;;;;;;5081001;27;89533;-60
2023/07/25 13:21:03;;;;;;;0.20;0.20;;;;;;;;;;5081259;27;87935;-59
2023/07/25 13:23:33;;;;;;;0.30;0.30;;;;;;;;;;5081241;27;88832;-60
2023/07/25 13:26:02;;;;;;;0.20;0.20;;;;;;;;;;5081373;27;87616;-57
2023/07/25 13:28:30;;;;;;;0.30;0.30;;;;;;;;;;5081258;27;88394;-60
2023/07/25 13:30:59;;;;;;;0.57;0.40;;;;;;;;;;5084470;27;88999;-60
2023/07/25 13:33:28;;;;;;;0.20;0.20;;;;;;;;;;5084677;27;88891;-60
2023/07/25 13:35:56;;;;;;;0.20;0.20;;;;;;;;;;5083955;27;87519;-60
2023/07/25 13:38:25;;;;;;;0.40;0.20;;;;;;;;;;5083600;27;89633;-62
2023/07/25 13:40:55;;;;;;;1.60;0.30;;;;;;;;;;5083890;27;90054;-62
2023/07/25 13:43:23;;;;;;;0.30;0.30;;;;;;;;;;5083943;27;89977;-62
2023/07/25 13:45:52;;;;;;;0.30;0.27;;;;;;;;;;5084773;27;87382;-62
2023/07/25 13:48:21;;;;;;;0.20;0.20;;;;;;;;;;5084258;27;89884;-62
2023/07/25 13:50:50;;;;;;;0.23;0.23;;;;;;;;;;5084317;27;89093;-62
2023/07/25 13:53:22;;;;;;;3.40;0.20;;;;;;;;;;5084300;27;88930;-62
2023/07/25 13:55:51;;;;;;;0.10;0.10;;;;;;;;;;5084445;27;88124;-62
2023/07/25 13:58:21;;;;;;;0.20;0.20;;;;;;;;;;5084384;27;89516;-62
2023/07/25 14:00:52;;;;;;;1.37;0.20;;;;;;;;;;5083995;27;89411;-62
2023/07/25 14:03:20;;;;;;;0.40;0.30;;;;;;;;;;5083872;27;89375;-62
2023/07/25 14:05:49;;;;;;;0.23;0.23;;;;;;;;;;5083910;27;87761;-62
2023/07/25 14:08:17;;;;;;;2.03;0.37;;;;;;;;;;5084826;27;89906;-62
2023/07/25 14:10:46;;;;;;;0.20;0.20;;;;;;;;;;5084027;27;88977;-62
2023/07/25 14:13:14;;;;;;;1.63;0.30;;;;;;;;;;5084255;27;89350;-62
2023/07/25 14:15:44;;;;;;;0.70;0.20;;;;;;;;;;5084077;27;87614;-62
2023/07/25 14:18:13;;;;;;;0.30;0.30;;;;;;;;;;5083785;27;89763;-62
2023/07/25 14:20:41;;;;;;;0.33;0.20;;;;;;;;;;5083761;27;89242;-62
2023/07/25 14:23:09;;;;;;;0.40;0.20;;;;;;;;;;5083804;27;88873;-62
2023/07/25 14:25:38;;;;;;;0.30;0.30;;;;;;;;;;5084095;27;87603;-62
2023/07/25 14:28:06;;;;;;;0.40;0.30;;;;;;;;;;5083409;27;90015;-62
2023/07/25 14:30:35;;;;;;;0.20;0.20;;;;;;;;;;5082800;27;90085;-62
2023/07/25 14:33:05;;;;;;;3.00;0.30;;;;;;;;;;5083174;27;89745;-62
2023/07/25 14:35:34;;;;;;;0.33;0.30;;;;;;;;;;5079938;27;88815;-62
2023/07/25 14:38:02;;;;;;;0.50;0.50;;;;;;;;;;5080822;27;89800;-63
2023/07/25 14:40:34;;;;;;;0.30;0.30;;;;;;;;;;5080398;27;87791;-62
2023/07/25 14:43:02;;;;;;;0.50;0.20;;;;;;;;;;5080517;27;89035;-62
2023/07/25 14:45:31;;;;;;;0.20;0.20;;;;;;;;;;5080890;27;87336;-62
2023/07/25 14:47:59;;;;;;;0.20;0.20;;;;;;;;;;5080374;27;88537;-62
2023/07/25 14:50:29;;;;;;;0.30;0.30;;;;;;;;;;5080186;27;89252;-62
2023/07/25 14:52:58;;;;;;;0.30;0.30;;;;;;;;;;5080269;27;88844;-62
2023/07/25 14:55:26;;;;;;;0.50;0.30;;;;;;;;;;5079924;27;88067;-66